Time;durP1;ratioP1;P1;durP2;ratioP2;P2;SDS_P1;SDS_P2;PMS_P1;PMS_P2;Temp;Humidity;BMP_temperature;BMP_pressure;BME280_temperature;BME280_humidity;BME280_pressure;Samples;Min_cycle;Max_cycle;Signal;HPM_P1;HPM_P2
2024/04/25 00:01:22;;;;;;;5.70;2.40;;;;;;;-141.50;100.00;63355.56;5400125;26;20010;-80
2024/04/25 00:03:49;;;;;;;5.93;2.10;;;;;;;-141.50;100.00;63355.56;5313217;26;20020;-81
2024/04/25 00:06:16;;;;;;;4.43;2.30;;;;;;;-141.50;100.00;63355.56;5362117;26;20016;-79
2024/04/25 00:08:44;;;;;;;4.85;2.38;;;;;;;-141.50;100.00;63355.56;5362856;26;20005;-82
2024/04/25 00:11:11;;;;;;;7.75;2.42;;;;;;;-141.50;100.00;63355.56;5378960;26;20586;-82
2024/04/25 00:13:38;;;;;;;5.32;2.55;;;;;;;-141.50;100.00;63355.56;5367012;26;20399;-80
2024/04/25 00:16:06;;;;;;;4.05;1.95;;;;;;;-141.50;100.00;63355.56;5362396;26;20008;-82
2024/04/25 00:18:33;;;;;;;4.93;2.40;;;;;;;-141.50;100.00;63355.56;5370628;26;20008;-82
2024/04/25 00:21:01;;;;;;;4.18;2.40;;;;;;;-141.50;100.00;63355.56;5390679;26;20012;-82
2024/04/25 00:23:28;;;;;;;4.68;2.30;;;;;;;-141.50;100.00;63355.56;5381207;26;20009;-80
2024/04/25 00:25:56;;;;;;;5.75;2.28;;;;;;;-141.50;100.00;63355.56;5375141;26;20015;-81
2024/04/25 00:28:23;;;;;;;4.78;2.33;;;;;;;-141.50;100.00;63355.56;5379600;26;20019;-80
2024/04/25 00:30:50;;;;;;;4.80;2.35;;;;;;;-141.50;100.00;63355.56;5377805;26;20008;-81
2024/04/25 00:33:18;;;;;;;5.75;2.53;;;;;;;-141.50;100.00;63355.56;5380982;26;20011;-81
2024/04/25 00:35:47;;;;;;;4.07;2.35;;;;;;;-141.50;100.00;63355.56;5336429;26;20199;-81
2024/04/25 00:38:14;;;;;;;4.50;2.60;;;;;;;-141.50;100.00;63355.56;5366718;26;20052;-80
2024/04/25 00:40:41;;;;;;;4.72;2.40;;;;;;;-141.50;100.00;63355.56;5361124;26;20419;-77
2024/04/25 00:43:08;;;;;;;4.40;2.45;;;;;;;-141.50;100.00;63355.56;5372542;26;20008;-81
2024/04/25 00:45:35;;;;;;;5.90;2.70;;;;;;;-141.50;100.00;63355.56;5349725;26;20008;-81
2024/04/25 00:48:03;;;;;;;5.63;2.50;;;;;;;-141.50;100.00;63355.56;5378582;26;20249;-81
2024/04/25 00:50:33;;;;;;;5.68;3.03;;;;;;;-141.50;100.00;63355.56;5358989;26;20081;-81
2024/04/25 00:53:00;;;;;;;5.30;2.70;;;;;;;-141.50;100.00;63355.56;5353971;26;20346;-80
2024/04/25 00:55:28;;;;;;;4.53;2.65;;;;;;;-141.50;100.00;63355.56;5376842;26;20000;-82
2024/04/25 00:58:02;;;;;;;9.65;3.08;;;;;;;-141.50;100.00;63355.56;5376989;26;20008;-80
2024/04/25 01:00:32;;;;;;;7.80;3.33;;;;;;;-141.50;100.00;63355.56;5377007;26;20054;-79
2024/04/25 01:03:05;;;;;;;7.70;3.22;;;;;;;-141.50;100.00;63355.56;5368608;26;20028;-79
2024/04/25 01:05:41;;;;;;;7.03;3.58;;;;;;;-141.50;100.00;63355.56;5364289;26;20023;-79
2024/04/25 01:08:09;;;;;;;7.93;3.42;;;;;;;-141.50;100.00;63355.56;5369252;26;20485;-78
2024/04/25 01:10:36;;;;;;;7.22;3.67;;;;;;;-141.50;100.00;63355.56;5354445;26;20001;-80
2024/04/25 01:13:04;;;;;;;8.02;3.35;;;;;;;-141.50;100.00;63355.56;5376512;26;20035;-81
2024/04/25 01:15:31;;;;;;;5.93;3.22;;;;;;;-141.50;100.00;63355.56;5378895;26;20008;-81
2024/04/25 01:18:01;;;;;;;5.93;3.40;;;;;;;-141.50;100.00;63355.56;5371793;26;20004;-78
2024/04/25 01:20:28;;;;;;;7.03;3.45;;;;;;;-141.50;100.00;63355.56;5370576;26;20019;-77
2024/04/25 01:22:59;;;;;;;7.60;3.83;;;;;;;-141.50;100.00;63355.56;5370940;26;20019;-79
2024/04/25 01:25:26;;;;;;;7.40;3.13;;;;;;;-141.50;100.00;63355.56;5377665;26;20000;-78
2024/04/25 01:27:54;;;;;;;7.55;3.58;;;;;;;-141.50;100.00;63355.56;5361164;26;20000;-79
2024/04/25 01:30:23;;;;;;;7.25;3.50;;;;;;;-141.50;100.00;63355.56;5377705;26;20024;-79
2024/04/25 01:32:50;;;;;;;10.85;3.85;;;;;;;-141.50;100.00;63355.56;5377618;26;20004;-79
2024/04/25 01:35:19;;;;;;;6.93;3.75;;;;;;;-141.50;100.00;63355.56;5348290;26;20094;-79
2024/04/25 01:37:46;;;;;;;7.60;3.78;;;;;;;-141.50;100.00;63355.56;5326195;26;20008;-80
2024/04/25 01:40:14;;;;;;;8.30;4.30;;;;;;;-141.50;100.00;63355.56;5354950;26;20012;-79
2024/04/25 01:42:41;;;;;;;8.13;3.53;;;;;;;-141.50;100.00;63355.56;5373123;26;20008;-80
2024/04/25 01:45:08;;;;;;;8.43;4.18;;;;;;;-141.50;100.00;63355.56;5375620;26;20041;-79
2024/04/25 01:47:35;;;;;;;10.63;4.25;;;;;;;-141.50;100.00;63355.56;5408155;26;20004;-81
2024/04/25 01:50:03;;;;;;;10.77;4.70;;;;;;;-141.50;100.00;63355.56;5371793;26;20073;-82
2024/04/25 01:52:30;;;;;;;10.70;4.70;;;;;;;-141.50;100.00;63355.56;5379173;26;20004;-79
2024/04/25 01:54:57;;;;;;;8.40;4.43;;;;;;;-141.50;100.00;63355.56;5341171;26;20017;-78
2024/04/25 01:57:24;;;;;;;10.93;5.13;;;;;;;-141.50;100.00;63355.56;5354653;26;20001;-79
2024/04/25 01:59:51;;;;;;;7.97;4.13;;;;;;;-141.50;100.00;63355.56;5374248;26;20000;-80
2024/04/25 02:02:18;;;;;;;9.52;4.35;;;;;;;-141.50;100.00;63355.56;5348862;26;20305;-82
2024/04/25 02:04:45;;;;;;;9.30;4.40;;;;;;;-141.50;100.00;63355.56;5364964;26;20008;-81
2024/04/25 02:07:13;;;;;;;8.15;4.55;;;;;;;-141.50;100.00;63355.56;5340585;26;20011;-80
2024/04/25 02:09:40;;;;;;;8.73;4.90;;;;;;;-141.50;100.00;63355.56;5343094;26;20004;-80
2024/04/25 02:12:08;;;;;;;9.77;4.90;;;;;;;-141.50;100.00;63355.56;5374812;26;20000;-81
2024/04/25 02:14:35;;;;;;;9.70;4.88;;;;;;;-141.50;100.00;63355.56;5380550;26;20000;-81
2024/04/25 02:17:02;;;;;;;9.82;4.88;;;;;;;-141.50;100.00;63355.56;5370642;26;20016;-79
2024/04/25 02:19:29;;;;;;;7.88;4.30;;;;;;;-141.50;100.00;63355.56;5350288;26;19999;-79
2024/04/25 02:27:31;;;;;;;7.97;4.38;;;;;;;-141.50;100.00;63355.56;5372461;26;20345;-82
2024/04/25 02:29:59;;;;;;;8.02;4.28;;;;;;;-141.50;100.00;63355.56;5367957;26;20012;-82
2024/04/25 02:32:26;;;;;;;9.43;4.53;;;;;;;-141.50;100.00;63355.56;5378348;26;20423;-80
2024/04/25 02:34:54;;;;;;;10.02;4.55;;;;;;;-141.50;100.00;63355.56;5358510;26;20039;-81
2024/04/25 02:37:22;;;;;;;7.93;4.63;;;;;;;-141.50;100.00;63355.56;5368189;26;20008;-80
2024/04/25 02:39:49;;;;;;;8.48;4.80;;;;;;;-141.50;100.00;63355.56;5350154;26;20325;-80
2024/04/25 02:42:16;;;;;;;10.13;4.43;;;;;;;-141.50;100.00;63355.56;5378077;26;20020;-77
2024/04/25 02:44:44;;;;;;;11.82;4.65;;;;;;;-141.50;100.00;63355.56;5378031;26;20004;-81
2024/04/25 02:47:11;;;;;;;7.85;4.20;;;;;;;-141.50;100.00;63355.56;5342946;26;20001;-81
2024/04/25 02:49:39;;;;;;;10.30;4.47;;;;;;;-141.50;100.00;63355.56;5370845;26;20452;-79
2024/04/25 02:52:06;;;;;;;10.25;4.47;;;;;;;-141.50;100.00;63355.56;5361622;26;20259;-79
2024/04/25 02:54:33;;;;;;;8.55;4.72;;;;;;;-141.50;100.00;63355.56;5374968;26;20012;-81
2024/04/25 02:57:01;;;;;;;9.10;4.07;;;;;;;-141.50;100.00;63355.56;5376020;26;20400;-80
2024/04/25 02:59:28;;;;;;;10.38;4.05;;;;;;;-141.50;100.00;63355.56;5365784;26;20004;-77
2024/04/25 03:01:55;;;;;;;8.95;4.15;;;;;;;-141.50;100.00;63355.56;5349310;26;20001;-82
2024/04/25 03:04:22;;;;;;;10.60;4.82;;;;;;;-141.50;100.00;63355.56;5339989;26;20009;-80
2024/04/25 03:06:52;;;;;;;11.82;4.65;;;;;;;-141.50;100.00;63355.56;5379762;26;20401;-82
2024/04/25 03:09:19;;;;;;;9.65;4.85;;;;;;;-141.50;100.00;63355.56;5380254;26;20008;-83
2024/04/25 03:11:47;;;;;;;10.98;4.40;;;;;;;-141.50;100.00;63355.56;5365300;26;20040;-79
2024/04/25 03:14:14;;;;;;;7.75;4.47;;;;;;;-141.50;100.00;63355.56;5373070;26;20990;-80
2024/04/25 03:16:42;;;;;;;10.13;4.68;;;;;;;-141.50;100.00;63355.56;5364205;26;20009;-80
2024/04/25 03:19:09;;;;;;;7.40;4.47;;;;;;;-141.50;100.00;63355.56;5356363;26;20036;-79
2024/04/25 03:21:36;;;;;;;10.35;4.43;;;;;;;-141.50;100.00;63355.56;5374809;26;20055;-80
2024/04/25 03:24:12;;;;;;;10.98;5.30;;;;;;;-141.50;100.00;63355.56;5377366;26;19996;-78
2024/04/25 03:26:51;;;;;;;8.02;4.25;;;;;;;-141.50;100.00;63355.56;5359599;26;20019;-79
2024/04/25 03:29:34;;;;;;;8.88;4.60;;;;;;;-141.50;100.00;63355.56;5345256;26;20005;-81
2024/04/25 03:32:02;;;;;;;8.57;4.40;;;;;;;-141.50;100.00;63355.56;5380741;26;20116;-80
2024/04/25 03:34:38;;;;;;;8.18;4.13;;;;;;;-141.50;100.00;63355.56;5335581;26;20131;-78
2024/04/25 03:37:15;;;;;;;;;;;;;;;-141.50;100.00;63355.56;5363183;26;20020;-78
2024/04/25 03:39:42;;;;;;;11.68;4.60;;;;;;;-141.50;100.00;63355.56;5356658;26;20421;-78
2024/04/25 03:42:10;;;;;;;8.88;4.78;;;;;;;-141.50;100.00;63355.56;5374316;26;20015;-80
2024/04/25 03:44:37;;;;;;;8.43;4.25;;;;;;;-141.50;100.00;63355.56;5343394;26;20001;-79
2024/04/25 03:47:04;;;;;;;8.52;4.57;;;;;;;-141.50;100.00;63355.56;5360121;26;20243;-78
2024/04/25 03:49:31;;;;;;;9.73;4.80;;;;;;;-141.50;100.00;63355.56;5359987;26;20611;-81
2024/04/25 03:51:59;;;;;;;7.50;4.28;;;;;;;-141.50;100.00;63355.56;5402647;26;20005;-82
2024/04/25 03:54:27;;;;;;;10.23;4.70;;;;;;;-141.50;100.00;63355.56;5377940;26;20004;-80
2024/04/25 03:56:54;;;;;;;7.35;4.05;;;;;;;-141.50;100.00;63355.56;5346556;26;19997;-81
2024/04/25 03:59:21;;;;;;;9.35;4.25;;;;;;;-141.50;100.00;63355.56;5339956;26;20028;-78
2024/04/25 04:01:48;;;;;;;11.73;4.47;;;;;;;-141.50;100.00;63355.56;5364202;26;20065;-80
2024/04/25 04:04:16;;;;;;;9.95;3.70;;;;;;;-141.50;100.00;63355.56;5373757;26;20008;-78
2024/04/25 04:06:43;;;;;;;8.52;3.83;;;;;;;-141.50;100.00;63355.56;5345292;26;19997;-79
2024/04/25 04:09:10;;;;;;;7.97;3.83;;;;;;;-141.50;100.00;63355.56;5383222;26;20000;-81
2024/04/25 04:11:38;;;;;;;11.20;3.85;;;;;;;-141.50;100.00;63355.56;5387565;26;20447;-80
2024/04/25 04:14:06;;;;;;;7.25;3.20;;;;;;;-141.50;100.00;63355.56;5368514;26;20057;-80
2024/04/25 04:16:33;;;;;;;5.82;3.30;;;;;;;-141.50;100.00;63355.56;5374373;26;19997;-79
2024/04/25 04:19:00;;;;;;;6.72;3.38;;;;;;;-141.50;100.00;63355.56;5372960;26;20032;-80
2024/04/25 04:21:27;;;;;;;11.23;3.40;;;;;;;-141.50;100.00;63355.56;5360092;26;19997;-79
2024/04/25 04:23:54;;;;;;;6.22;3.00;;;;;;;-141.50;100.00;63355.56;5373770;26;20078;-80
2024/04/25 04:26:21;;;;;;;7.88;2.92;;;;;;;-141.50;100.00;63355.56;5373654;26;20012;-81
2024/04/25 04:28:48;;;;;;;4.72;2.55;;;;;;;-141.50;100.00;63355.56;5376276;26;20004;-81
2024/04/25 04:31:15;;;;;;;6.65;2.63;;;;;;;-141.50;100.00;63355.56;5372478;26;20007;-79
2024/04/25 04:33:42;;;;;;;4.00;2.58;;;;;;;-141.50;100.00;63355.56;5371026;26;20493;-82
2024/04/25 04:36:10;;;;;;;4.40;2.20;;;;;;;-141.50;100.00;63355.56;5361285;26;20008;-81
2024/04/25 04:38:37;;;;;;;6.57;2.70;;;;;;;-141.50;100.00;63355.56;5365508;26;20028;-82
2024/04/25 04:41:04;;;;;;;6.22;2.78;;;;;;;-141.50;100.00;63355.56;5356708;26;20077;-81
2024/04/25 04:43:31;;;;;;;4.38;2.40;;;;;;;-141.50;100.00;63355.56;5348801;26;19993;-81
2024/04/25 04:46:01;;;;;;;4.47;2.53;;;;;;;-141.50;100.00;63355.56;5374717;26;20000;-80
2024/04/25 04:48:28;;;;;;;8.38;3.00;;;;;;;-141.50;100.00;63355.56;5387094;26;20518;-80
2024/04/25 04:51:01;;;;;;;6.57;2.92;;;;;;;-141.50;100.00;63355.56;5359441;26;20005;-79
2024/04/25 04:53:29;;;;;;;5.22;2.40;;;;;;;-141.50;100.00;63355.56;5362866;26;20020;-78
2024/04/25 04:55:56;;;;;;;4.10;2.55;;;;;;;-141.50;100.00;63355.56;5355496;26;20017;-81
2024/04/25 04:58:23;;;;;;;3.78;2.30;;;;;;;-141.50;100.00;63355.56;5364532;26;20009;-78
2024/04/25 05:00:53;;;;;;;3.67;2.30;;;;;;;-141.50;100.00;63355.56;5355255;26;20012;-79
2024/04/25 05:03:21;;;;;;;3.00;1.85;;;;;;;-141.50;100.00;63355.56;5354196;26;20057;-79
2024/04/25 05:05:48;;;;;;;4.35;2.10;;;;;;;-141.50;100.00;63355.56;5378860;26;20361;-82
2024/04/25 05:08:15;;;;;;;5.88;2.25;;;;;;;-141.50;100.00;63355.56;5363038;26;20020;-79
2024/04/25 05:10:42;;;;;;;4.07;2.40;;;;;;;-141.50;100.00;63355.56;5356528;26;20059;-79
2024/04/25 05:13:10;;;;;;;6.82;3.00;;;;;;;-141.50;100.00;63355.56;5353674;26;20001;-81
2024/04/25 05:15:37;;;;;;;10.45;2.80;;;;;;;-141.50;100.00;63355.56;5342090;26;20016;-80
2024/04/25 05:18:05;;;;;;;5.72;2.92;;;;;;;-141.50;100.00;63355.56;5349934;26;20467;-81
2024/04/25 05:20:32;;;;;;;7.45;3.45;;;;;;;-141.50;100.00;63355.56;5359323;26;20012;-80
2024/04/25 05:23:00;;;;;;;9.88;2.97;;;;;;;-141.50;100.00;63355.56;5363973;26;19997;-79
2024/04/25 05:25:27;;;;;;;6.85;2.60;;;;;;;-141.50;100.00;63355.56;5371592;26;20005;-82
2024/04/25 05:27:54;;;;;;;5.97;2.55;;;;;;;-141.50;100.00;63355.56;5373562;26;20004;-78
2024/04/25 05:30:22;;;;;;;5.32;2.95;;;;;;;-141.50;100.00;63355.56;5335927;26;20147;-82
2024/04/25 05:32:49;;;;;;;7.50;2.88;;;;;;;-141.50;100.00;63355.56;5362110;26;20082;-79
2024/04/25 05:35:17;;;;;;;5.60;2.83;;;;;;;-141.50;100.00;63355.56;5358149;26;20013;-80
2024/04/25 05:37:44;;;;;;;7.68;3.10;;;;;;;-141.50;100.00;63355.56;5342913;26;20065;-81
2024/04/25 05:40:11;;;;;;;5.88;2.60;;;;;;;-141.50;100.00;63355.56;5367460;26;20422;-81
2024/04/25 05:42:38;;;;;;;6.03;2.70;;;;;;;-141.50;100.00;63355.56;5365907;26;20001;-81
2024/04/25 05:45:06;;;;;;;7.18;2.85;;;;;;;-141.50;100.00;63355.56;5302962;26;20001;-80
2024/04/25 05:47:33;;;;;;;6.90;2.72;;;;;;;-141.50;100.00;63355.56;5357693;26;20005;-80
2024/04/25 05:50:01;;;;;;;4.50;2.30;;;;;;;-141.50;100.00;63355.56;5368928;26;20045;-80
2024/04/25 05:52:32;;;;;;;5.80;2.97;;;;;;;-141.50;100.00;63355.56;5372548;26;20415;-79
2024/04/25 05:55:00;;;;;;;6.20;2.95;;;;;;;-141.50;100.00;63355.56;5365267;26;20015;-80
2024/04/25 05:57:27;;;;;;;6.80;2.67;;;;;;;-141.50;100.00;63355.56;5364354;26;20016;-79
2024/04/25 05:59:54;;;;;;;5.93;3.00;;;;;;;-141.50;100.00;63355.56;5345863;26;20174;-80
2024/04/25 06:02:25;;;;;;;7.03;2.90;;;;;;;-141.50;100.00;63355.56;5366439;26;20501;-78
2024/04/25 06:04:53;;;;;;;5.63;2.97;;;;;;;-141.50;100.00;63355.56;5379987;26;20073;-81
2024/04/25 06:07:21;;;;;;;5.55;2.88;;;;;;;-141.50;100.00;63355.56;5367134;26;20691;-80
2024/04/25 06:09:49;;;;;;;8.30;2.88;;;;;;;-141.50;100.00;63355.56;5353785;26;20400;-79
2024/04/25 06:12:17;;;;;;;6.45;3.17;;;;;;;-141.50;100.00;63355.56;5341796;26;20012;-80
2024/04/25 06:14:44;;;;;;;6.68;3.40;;;;;;;-141.50;100.00;63355.56;5357805;26;20506;-80
2024/04/25 06:17:11;;;;;;;9.45;3.55;;;;;;;-141.50;100.00;63355.56;5358953;26;20488;-83
2024/04/25 06:19:38;;;;;;;7.28;3.38;;;;;;;-141.50;100.00;63355.56;5371817;26;20004;-82
2024/04/25 06:22:06;;;;;;;10.40;3.70;;;;;;;-141.50;100.00;63355.56;5376589;26;19997;-78
2024/04/25 06:24:33;;;;;;;8.73;4.53;;;;;;;-141.50;100.00;63355.56;5365193;26;20433;-80
2024/04/25 06:27:00;;;;;;;6.07;3.53;;;;;;;-141.50;100.00;63355.56;5370922;26;20028;-80
2024/04/25 06:29:27;;;;;;;10.02;3.97;;;;;;;-141.50;100.00;63355.56;5319420;26;20318;-81
2024/04/25 06:31:54;;;;;;;9.18;3.42;;;;;;;-141.50;100.00;63355.56;5360747;26;20414;-81
2024/04/25 06:34:21;;;;;;;6.55;3.20;;;;;;;-141.50;100.00;63355.56;5347724;26;20022;-79
2024/04/25 06:36:48;;;;;;;7.82;3.13;;;;;;;-141.50;100.00;63355.56;5345607;26;20004;-80
2024/04/25 06:39:16;;;;;;;8.10;3.03;;;;;;;-141.50;100.00;63355.56;5374506;26;20028;-82
2024/04/25 06:41:43;;;;;;;8.57;3.22;;;;;;;-141.50;100.00;63355.56;5362561;26;20000;-79
2024/04/25 06:44:20;;;;;;;8.77;3.50;;;;;;;-141.50;100.00;63355.56;5361994;26;20661;-79
2024/04/25 06:47:01;;;;;;;6.03;3.88;;;;;;;-141.50;100.00;63355.56;5373078;26;20008;-78
2024/04/25 06:49:28;;;;;;;5.20;2.67;;;;;;;-141.50;100.00;63355.56;5331808;26;20431;-79
2024/04/25 06:51:55;;;;;;;9.07;3.38;;;;;;;-141.50;100.00;63355.56;5370572;26;20396;-82
2024/04/25 06:54:22;;;;;;;9.18;3.35;;;;;;;-141.50;100.00;63355.56;5354170;26;20021;-82
2024/04/25 06:56:53;;;;;;;7.95;3.15;;;;;;;-141.50;100.00;63355.56;5342195;26;20012;-81
2024/04/25 06:59:20;;;;;;;5.82;3.05;;;;;;;-141.50;100.00;63355.56;5367821;26;20442;-81
2024/04/25 07:01:49;;;;;;;5.45;2.80;;;;;;;-141.50;100.00;63355.56;5350403;26;20005;-80
2024/04/25 07:04:17;;;;;;;8.52;2.95;;;;;;;-141.50;100.00;63355.56;5376056;26;20004;-82
2024/04/25 07:06:44;;;;;;;5.63;2.92;;;;;;;-141.50;100.00;63355.56;5376732;26;20023;-79
2024/04/25 07:09:11;;;;;;;5.78;2.92;;;;;;;-141.50;100.00;63355.56;5325056;26;20363;-81
2024/04/25 07:11:38;;;;;;;7.15;3.25;;;;;;;-141.50;100.00;63355.56;5367561;26;20059;-80
2024/04/25 07:14:05;;;;;;;9.15;3.30;;;;;;;-141.50;100.00;63355.56;5345713;26;20000;-78
2024/04/25 07:16:33;;;;;;;7.05;3.47;;;;;;;-141.50;100.00;63355.56;5374487;26;20004;-79
2024/04/25 07:19:02;;;;;;;6.88;3.00;;;;;;;-141.50;100.00;63355.56;5337809;26;20015;-78
2024/04/25 07:21:31;;;;;;;5.03;2.70;;;;;;;-141.50;100.00;63355.56;5402064;26;20008;-81
2024/04/25 07:23:58;;;;;;;6.28;3.10;;;;;;;-141.50;100.00;63355.56;5362465;26;20028;-80
2024/04/25 07:26:29;;;;;;;5.13;2.58;;;;;;;-141.50;100.00;63355.56;5375212;26;20009;-82
2024/04/25 07:28:56;;;;;;;5.82;3.20;;;;;;;-141.50;100.00;63355.56;5356719;26;20019;-80
2024/04/25 07:31:23;;;;;;;5.80;2.88;;;;;;;-141.50;100.00;63355.56;5363065;26;20096;-79
2024/04/25 07:33:50;;;;;;;7.22;2.95;;;;;;;-141.50;100.00;63355.56;5371658;26;20052;-79
2024/04/25 07:36:20;;;;;;;7.63;3.08;;;;;;;-141.50;100.00;63355.56;5362272;26;20008;-80
2024/04/25 07:38:47;;;;;;;5.93;2.88;;;;;;;-141.50;100.00;63355.56;5372011;26;20014;-78
2024/04/25 07:41:14;;;;;;;5.50;2.55;;;;;;;-141.50;100.00;63355.56;5360650;26;20035;-81
2024/04/25 07:43:42;;;;;;;7.85;2.80;;;;;;;-141.50;100.00;63355.56;5371989;26;20004;-78
2024/04/25 07:46:12;;;;;;;7.88;2.30;;;;;;;-141.50;100.00;63355.56;5372646;26;20482;-78
2024/04/25 07:48:40;;;;;;;4.47;2.30;;;;;;;-141.50;100.00;63355.56;5365264;26;20005;-80
2024/04/25 07:51:07;;;;;;;3.97;2.22;;;;;;;-141.50;100.00;63355.56;5367951;26;20019;-81
2024/04/25 07:53:37;;;;;;;6.00;2.38;;;;;;;-141.50;100.00;63355.56;5351446;26;20588;-80
2024/04/25 07:56:04;;;;;;;6.70;2.65;;;;;;;-141.50;100.00;63355.56;5376659;26;20512;-80
2024/04/25 07:58:31;;;;;;;10.15;2.53;;;;;;;-141.50;100.00;63355.56;5372257;26;20004;-79
2024/04/25 08:00:58;;;;;;;4.47;2.55;;;;;;;-141.50;100.00;63355.56;5374077;26;20004;-77
2024/04/25 08:03:26;;;;;;;7.78;2.33;;;;;;;-141.50;100.00;63355.56;5372360;26;20008;-80
2024/04/25 08:05:54;;;;;;;3.00;2.03;;;;;;;-141.50;100.00;63355.56;5361130;26;20055;-79
2024/04/25 08:08:22;;;;;;;10.77;2.92;;;;;;;-141.50;100.00;63355.56;5355199;26;20004;-77
2024/04/25 08:10:52;;;;;;;5.35;2.35;;;;;;;-141.50;100.00;63355.56;5367999;26;20008;-80
2024/04/25 08:13:19;;;;;;;4.72;2.10;;;;;;;-141.50;100.00;63355.56;5362531;26;20013;-80
2024/04/25 08:15:46;;;;;;;7.38;2.63;;;;;;;-141.50;100.00;63355.56;5370768;26;20453;-81
2024/04/25 08:18:14;;;;;;;4.05;2.00;;;;;;;-141.50;100.00;63355.56;5366856;26;20341;-84
2024/04/25 08:20:41;;;;;;;4.50;2.65;;;;;;;-141.50;100.00;63355.56;5364481;26;20015;-80
2024/04/25 08:23:08;;;;;;;4.38;2.35;;;;;;;-141.50;100.00;63355.56;5343300;26;20012;-79
2024/04/25 08:25:36;;;;;;;4.70;2.10;;;;;;;-141.50;100.00;63355.56;5363991;26;20005;-80
2024/04/25 08:28:03;;;;;;;4.45;1.95;;;;;;;-141.50;100.00;63355.56;5357967;26;20001;-79
2024/04/25 08:30:30;;;;;;;5.10;1.75;;;;;;;-141.50;100.00;63355.56;5374241;26;20040;-79
2024/04/25 08:32:58;;;;;;;3.65;2.13;;;;;;;-141.50;100.00;63355.56;5372951;26;20054;-78
2024/04/25 08:35:26;;;;;;;6.82;2.20;;;;;;;-141.50;100.00;63355.56;5343351;26;20013;-80
2024/04/25 08:37:53;;;;;;;8.23;1.80;;;;;;;-141.50;100.00;63355.56;5398178;26;20016;-79
2024/04/25 08:40:21;;;;;;;5.43;2.05;;;;;;;-141.50;100.00;63355.56;5353050;26;20009;-81
2024/04/25 08:42:50;;;;;;;4.32;2.00;;;;;;;-141.50;100.00;63355.56;5369752;26;20016;-81
2024/04/25 08:45:18;;;;;;;7.03;2.13;;;;;;;-141.50;100.00;63355.56;5361918;26;20008;-79
2024/04/25 08:47:48;;;;;;;6.63;1.92;;;;;;;-141.50;100.00;63355.56;5377375;26;20289;-79
2024/04/25 08:50:18;;;;;;;5.95;1.95;;;;;;;-141.50;100.00;63355.56;5363484;26;20028;-79
2024/04/25 08:52:46;;;;;;;5.40;2.05;;;;;;;-141.50;100.00;63355.56;5371526;26;20005;-81
2024/04/25 08:55:16;;;;;;;3.03;1.83;;;;;;;-141.50;100.00;63355.56;5361397;26;20008;-80
2024/04/25 08:57:44;;;;;;;4.35;1.80;;;;;;;-141.50;100.00;63355.56;5372776;26;20040;-80
2024/04/25 09:00:13;;;;;;;4.30;1.73;;;;;;;-141.50;100.00;63355.56;5352843;26;20346;-80
2024/04/25 09:02:43;;;;;;;3.63;1.80;;;;;;;-141.50;100.00;63355.56;5324599;26;20513;-80
2024/04/25 09:05:11;;;;;;;5.95;1.80;;;;;;;-141.50;100.00;63355.56;5322550;26;20044;-79
2024/04/25 09:07:44;;;;;;;8.40;1.90;;;;;;;-141.50;100.00;63355.56;5301663;26;20027;-80
2024/04/25 09:10:12;;;;;;;4.75;1.77;;;;;;;-141.50;100.00;63355.56;5359294;26;20008;-80
2024/04/25 09:12:40;;;;;;;3.42;1.88;;;;;;;-141.50;100.00;63355.56;5370340;26;20052;-80
2024/04/25 09:15:07;;;;;;;6.40;2.42;;;;;;;-141.50;100.00;63355.56;5366184;26;20449;-80
2024/04/25 09:17:35;;;;;;;2.95;1.80;;;;;;;-141.50;100.00;63355.56;5365771;26;20012;-80
2024/04/25 09:20:07;;;;;;;2.67;1.70;;;;;;;-141.50;100.00;63355.56;5369450;26;20016;-82
2024/04/25 09:22:36;;;;;;;5.63;1.50;;;;;;;-141.50;100.00;63355.56;5366029;26;20005;-79
2024/04/25 09:25:05;;;;;;;3.22;1.60;;;;;;;-141.50;100.00;63355.56;5369954;26;20050;-81
2024/04/25 09:27:32;;;;;;;3.00;1.50;;;;;;;-141.50;100.00;63355.56;5351612;26;20015;-80
2024/04/25 09:30:00;;;;;;;2.40;1.10;;;;;;;-141.50;100.00;63355.56;5337010;26;20281;-82
2024/04/25 09:32:28;;;;;;;3.20;1.40;;;;;;;-141.50;100.00;63355.56;5366616;26;20549;-82
2024/04/25 09:34:57;;;;;;;1.98;1.20;;;;;;;-141.50;100.00;63355.56;5358464;26;20009;-81
2024/04/25 09:37:31;;;;;;;3.25;1.20;;;;;;;-141.50;100.00;63355.56;5369435;26;20441;-82
2024/04/25 09:39:58;;;;;;;2.25;1.13;;;;;;;-141.50;100.00;63355.56;5371176;26;20004;-81
2024/04/25 09:42:34;;;;;;;3.83;1.00;;;;;;;-141.50;100.00;63355.56;5360985;26;20020;-81
2024/04/25 09:45:07;;;;;;;3.30;1.00;;;;;;;-141.50;100.00;63355.56;5374411;26;20016;-83
2024/04/25 09:47:51;;;;;;;2.22;0.90;;;;;;;-141.50;100.00;63355.56;5347450;26;20004;-82
2024/04/25 09:50:23;;;;;;;1.38;1.10;;;;;;;-141.50;100.00;63355.56;5333519;26;20004;-81
2024/04/25 09:53:14;;;;;;;1.42;0.80;;;;;;;-141.50;100.00;63355.56;5376978;26;20016;-81
2024/04/25 09:55:45;;;;;;;1.85;1.00;;;;;;;-141.50;100.00;63355.56;5374968;26;20401;-79
2024/04/25 09:58:25;;;;;;;1.50;0.88;;;;;;;-141.50;100.00;63355.56;5372829;26;20001;-81
2024/04/25 10:00:54;;;;;;;3.22;0.80;;;;;;;-141.50;100.00;63355.56;5367082;26;20022;-81
2024/04/25 10:03:21;;;;;;;3.67;1.00;;;;;;;-141.50;100.00;63355.56;5379269;26;20047;-81
2024/04/25 10:05:49;;;;;;;2.45;1.20;;;;;;;-141.50;100.00;63355.56;5364419;26;20028;-79
2024/04/25 10:08:17;;;;;;;2.08;1.17;;;;;;;-141.50;100.00;63355.56;5332132;26;20009;-78
2024/04/25 10:10:44;;;;;;;1.92;1.15;;;;;;;-141.50;100.00;63355.56;5342566;26;20042;-81
2024/04/25 10:13:14;;;;;;;2.92;1.45;;;;;;;-141.50;100.00;63355.56;5339928;26;20349;-80
2024/04/25 10:15:41;;;;;;;3.33;1.10;;;;;;;-141.50;100.00;63355.56;5343060;26;20009;-81
2024/04/25 10:18:11;;;;;;;1.60;1.30;;;;;;;-141.50;100.00;63355.56;5366240;26;19997;-81
2024/04/25 10:20:39;;;;;;;1.92;1.17;;;;;;;-141.50;100.00;63355.56;5353832;26;20474;-80
2024/04/25 10:23:09;;;;;;;2.83;1.35;;;;;;;-141.50;100.00;63355.56;5377043;26;20036;-79
2024/04/25 10:25:36;;;;;;;3.25;1.45;;;;;;;-141.50;100.00;63355.56;5392391;26;20020;-82
2024/04/25 10:28:05;;;;;;;2.30;1.40;;;;;;;-141.50;100.00;63355.56;5376068;26;20000;-80
2024/04/25 10:30:35;;;;;;;2.30;1.65;;;;;;;-141.50;100.00;63355.56;5379148;26;20012;-83
2024/04/25 10:33:03;;;;;;;3.85;1.50;;;;;;;-141.50;100.00;63355.56;5379127;26;20000;-83
2024/04/25 10:35:37;;;;;;;1.80;1.17;;;;;;;-141.50;100.00;63355.56;5355369;26;20004;-83
2024/04/25 10:38:05;;;;;;;4.03;1.25;;;;;;;-141.50;100.00;63355.56;5373305;26;20000;-83
2024/04/25 10:40:33;;;;;;;1.92;1.20;;;;;;;-141.50;100.00;63355.56;5378219;26;20048;-82
2024/04/25 10:43:00;;;;;;;2.35;1.10;;;;;;;-141.50;100.00;63355.56;5355004;26;20093;-81
2024/04/25 10:45:32;;;;;;;1.48;0.90;;;;;;;-141.50;100.00;63355.56;5352876;26;20374;-81
2024/04/25 10:48:03;;;;;;;2.42;1.10;;;;;;;-141.50;100.00;63355.56;5335520;26;20009;-81
2024/04/25 10:50:39;;;;;;;2.40;1.10;;;;;;;-141.50;100.00;63355.56;5308651;26;20505;-80
2024/04/25 10:53:06;;;;;;;2.42;1.05;;;;;;;-141.50;100.00;63355.56;5334670;26;20569;-81
2024/04/25 10:55:33;;;;;;;3.05;1.10;;;;;;;-141.50;100.00;63355.56;5331936;26;20016;-81
2024/04/25 10:58:12;;;;;;;2.08;1.10;;;;;;;-141.50;100.00;63355.56;5338134;26;20014;-81
2024/04/25 11:00:43;;;;;;;0.60;0.50;;;;;;;-141.50;100.00;63355.56;5343083;26;20513;-81
2024/04/25 11:03:10;;;;;;;2.22;0.45;;;;;;;-141.50;100.00;63355.56;5375722;26;20087;-81
2024/04/25 11:05:41;;;;;;;1.15;0.60;;;;;;;-141.50;100.00;63355.56;5362230;26;20020;-80
2024/04/25 11:08:09;;;;;;;2.45;0.80;;;;;;;-141.50;100.00;63355.56;5383398;26;20340;-80
2024/04/25 11:10:36;;;;;;;1.80;0.77;;;;;;;-141.50;100.00;63355.56;5361343;26;20012;-79
2024/04/25 11:13:04;;;;;;;0.90;0.55;;;;;;;-141.50;100.00;63355.56;5359478;26;20005;-82
2024/04/25 11:15:31;;;;;;;2.83;0.57;;;;;;;-141.50;100.00;63355.56;5355984;26;20009;-82
2024/04/25 11:18:02;;;;;;;2.38;0.70;;;;;;;-141.50;100.00;63355.56;5342393;26;20008;-82
2024/04/25 11:20:39;;;;;;;0.70;0.50;;;;;;;-141.50;100.00;63355.56;5364205;26;20020;-82